Time;durP1;ratioP1;P1;durP2;ratioP2;P2;SDS_P1;SDS_P2;PMS_P1;PMS_P2;Temp;Humidity;BMP_temperature;BMP_pressure;BME280_temperature;BME280_humidity;BME280_pressure;Samples;Min_cycle;Max_cycle;Signal;HPM_P1;HPM_P2
2023/06/27 00:00:35;;;;;;;9.02;6.30;;;;;;;19.03;100.00;64977.28;5070954;28;20200;-57
2023/06/27 00:03:00;;;;;;;8.10;6.13;;;;;;;19.00;100.00;64976.53;5070546;28;20597;-58
2023/06/27 00:05:26;;;;;;;11.95;6.28;;;;;;;18.85;100.00;64955.41;5070833;28;20208;-55
2023/06/27 00:07:51;;;;;;;7.15;5.68;;;;;;;18.77;100.00;64948.59;5070438;28;20209;-55
2023/06/27 00:10:17;;;;;;;7.03;5.72;;;;;;;18.75;100.00;64949.50;5070573;28;20204;-55
2023/06/27 00:12:44;;;;;;;11.13;6.00;;;;;;;18.76;100.00;64944.94;5070560;28;20201;-56
2023/06/27 00:15:10;;;;;;;8.95;6.30;;;;;;;18.59;100.00;64928.72;5070615;28;20219;-58
2023/06/27 00:17:40;;;;;;;9.57;5.90;;;;;;;18.57;100.00;64929.06;5070458;28;20231;-58
2023/06/27 00:20:09;;;;;;;8.60;5.72;;;;;;;18.59;100.00;64928.72;5070476;28;20200;-55
2023/06/27 00:22:39;;;;;;;6.07;5.22;;;;;;;18.62;100.00;64929.50;5070279;28;20209;-54
2023/06/27 00:25:06;;;;;;;9.48;6.20;;;;;;;18.76;100.00;64945.50;5070859;28;20231;-55
2023/06/27 00:27:31;;;;;;;7.47;5.63;;;;;;;18.71;100.00;64945.06;5072932;28;20240;-59
2023/06/27 00:29:56;;;;;;;7.60;5.78;;;;;;;18.69;100.00;64939.75;5074012;28;20303;-58
2023/06/27 00:32:22;;;;;;;11.93;7.22;;;;;;;18.48;100.00;64917.16;5056013;28;20220;-54
2023/06/27 00:34:47;;;;;;;8.57;5.72;;;;;;;18.47;100.00;64916.03;5074090;28;20265;-57
2023/06/27 00:37:13;;;;;;;9.95;5.82;;;;;;;18.48;100.00;64917.16;5073988;28;20196;-55
2023/06/27 00:39:40;;;;;;;6.07;5.47;;;;;;;18.52;100.00;64921.56;5073894;28;20227;-58
2023/06/27 00:42:06;;;;;;;8.90;5.70;;;;;;;18.64;100.00;64932.25;5073744;28;20273;-58
2023/06/27 00:44:31;;;;;;;10.23;5.72;;;;;;;18.63;100.00;64930.59;5074103;28;20209;-55
2023/06/27 00:46:58;;;;;;;6.25;5.00;;;;;;;18.60;100.00;64929.84;5073842;28;20223;-61
2023/06/27 00:49:24;;;;;;;7.82;5.57;;;;;;;18.54;100.00;64921.22;5073879;28;20225;-56
2023/06/27 00:51:51;;;;;;;7.25;5.40;;;;;;;18.55;100.00;64924.31;5073427;28;20212;-58
2023/06/27 00:54:17;;;;;;;8.65;5.60;;;;;;;18.45;100.00;64916.41;5073639;28;20224;-56
2023/06/27 00:56:43;;;;;;;7.65;5.30;;;;;;;18.19;100.00;64885.69;5073802;28;20241;-58
2023/06/27 00:59:09;;;;;;;7.30;5.00;;;;;;;18.13;100.00;64881.06;5073716;28;20595;-56
2023/06/27 01:01:35;;;;;;;6.60;4.70;;;;;;;18.20;100.00;64884.25;5055581;28;20204;-57
2023/06/27 01:04:01;;;;;;;8.38;5.15;;;;;;;18.21;100.00;64884.81;5073511;28;20212;-55
2023/06/27 01:07:02;;;;;;;7.68;5.50;;;;;;;18.22;100.00;64889.00;5073315;28;20580;-56
2023/06/27 01:09:49;;;;;;;5.72;4.55;;;;;;;18.24;100.00;64893.22;5073233;28;20303;-55
2023/06/27 01:12:32;;;;;;;6.03;4.72;;;;;;;18.24;100.00;64890.66;5073310;28;20678;-55
2023/06/27 01:14:59;;;;;;;9.20;5.30;;;;;;;18.17;100.00;64880.94;5055594;28;20213;-56
2023/06/27 01:17:28;;;;;;;6.90;5.40;;;;;;;18.27;100.00;64897.06;5055201;28;20192;-55
2023/06/27 01:19:55;;;;;;;6.93;5.25;;;;;;;18.47;100.00;64912.94;5073359;28;20223;-55
2023/06/27 01:22:35;;;;;;;7.00;5.18;;;;;;;18.52;100.00;64921.00;5072805;28;20200;-55
2023/06/27 01:25:02;;;;;;;6.97;4.82;;;;;;;18.36;100.00;64904.44;5071352;28;20643;-57
2023/06/27 01:27:28;;;;;;;5.20;4.70;;;;;;;18.29;100.00;64894.19;5071938;28;20227;-54
2023/06/27 01:29:54;;;;;;;7.50;4.47;;;;;;;18.10;100.00;64873.22;5072649;28;20205;-55
2023/06/27 01:32:27;;;;;;;6.95;5.05;;;;;;;18.00;100.00;64864.19;5072330;28;20588;-55
2023/06/27 01:35:10;;;;;;;6.32;5.10;;;;;;;18.01;100.00;64865.84;5073432;28;20217;-57
2023/06/27 01:37:41;;;;;;;7.35;4.90;;;;;;;18.22;100.00;64889.00;5072989;28;20208;-57
2023/06/27 01:40:14;;;;;;;8.15;5.05;;;;;;;18.10;100.00;64877.78;5072729;28;20220;-58
2023/06/27 01:42:42;;;;;;;8.65;4.40;;;;;;;18.09;100.00;64876.66;5073006;28;20260;-58
2023/06/27 01:45:09;;;;;;;7.97;5.43;;;;;;;18.10;100.00;64875.75;5072839;28;20213;-59
2023/06/27 01:47:40;;;;;;;6.30;4.85;;;;;;;17.92;100.00;64858.47;5072677;28;20548;-55
2023/06/27 01:50:06;;;;;;;7.13;4.05;;;;;;;17.89;100.00;64855.19;5072654;28;20221;-55
2023/06/27 01:52:32;;;;;;;5.80;4.43;;;;;;;17.79;100.00;64841.03;5072672;28;20226;-55
2023/06/27 01:54:59;;;;;;;5.93;4.60;;;;;;;17.67;100.00;64828.38;5073046;28;20776;-55
2023/06/27 01:57:25;;;;;;;9.82;5.07;;;;;;;17.49;100.00;64809.06;5072596;28;20200;-55
2023/06/27 01:59:51;;;;;;;12.18;7.13;;;;;;;17.60;100.00;64823.19;5073023;28;20220;-57
2023/06/27 02:02:16;;;;;;;6.28;4.47;;;;;;;17.54;100.00;64816.59;5072518;28;20636;-58
2023/06/27 02:04:42;;;;;;;8.70;5.20;;;;;;;17.52;100.00;64812.38;5072666;28;20217;-58
2023/06/27 02:07:07;;;;;;;5.75;4.30;;;;;;;17.51;100.00;64811.28;5072461;28;20220;-57
2023/06/27 02:09:33;;;;;;;4.65;4.15;;;;;;;17.65;100.00;64826.16;5072392;28;20665;-58
2023/06/27 02:11:58;;;;;;;6.40;3.90;;;;;;;17.60;100.00;64823.75;5072491;28;20207;-56
2023/06/27 02:14:24;;;;;;;6.53;5.72;;;;;;;17.71;100.00;64835.34;5072624;28;20250;-57
2023/06/27 02:16:49;;;;;;;6.70;5.20;;;;;;;17.60;100.00;64823.75;5072251;28;20652;-57
2023/06/27 02:19:15;;;;;;;7.47;4.80;;;;;;;17.66;100.00;64827.25;5072719;28;20212;-57
2023/06/27 02:21:40;;;;;;;4.68;4.28;;;;;;;17.50;100.00;64812.19;5072412;28;20272;-55
2023/06/27 02:24:06;;;;;;;6.43;4.18;;;;;;;17.64;100.00;64825.06;5072132;28;20283;-54
2023/06/27 02:26:31;;;;;;;6.80;4.68;;;;;;;17.61;100.00;64821.75;5072078;28;20269;-56
2023/06/27 02:28:57;;;;;;;5.97;4.85;;;;;;;17.57;100.00;64817.34;5072336;28;20212;-59
2023/06/27 02:31:29;;;;;;;8.02;4.88;;;;;;;17.37;100.00;64795.81;5072306;28;20220;-54
2023/06/27 02:33:55;;;;;;;7.43;4.60;;;;;;;17.26;100.00;64783.16;5072043;28;20312;-55
2023/06/27 02:36:22;;;;;;;6.40;4.60;;;;;;;17.35;100.00;64793.09;5072039;28;20667;-56
2023/06/27 02:38:49;;;;;;;6.88;4.35;;;;;;;17.42;100.00;64798.81;5072026;28;20714;-58
2023/06/27 02:41:14;;;;;;;5.80;4.65;;;;;;;17.37;100.00;64792.75;5071787;28;20204;-55
2023/06/27 02:43:40;;;;;;;5.13;4.43;;;;;;;17.33;100.00;64791.41;5071700;28;20217;-55
2023/06/27 02:46:06;;;;;;;8.68;4.72;;;;;;;17.27;100.00;64787.34;5071881;28;20279;-55
2023/06/27 02:48:31;;;;;;;5.72;4.43;;;;;;;17.33;100.00;64790.88;5071633;28;20223;-56
2023/06/27 02:50:57;;;;;;;3.92;3.53;;;;;;;17.41;100.00;64799.69;5071485;28;20197;-55
2023/06/27 02:53:22;;;;;;;6.82;4.28;;;;;;;17.42;100.00;64800.78;5071537;28;20248;-58
2023/06/27 02:55:49;;;;;;;5.63;4.15;;;;;;;17.41;100.00;64802.25;5071931;28;20193;-55
2023/06/27 02:58:14;;;;;;;5.47;3.55;;;;;;;17.37;100.00;64798.38;5071664;28;20218;-55
2023/06/27 03:00:39;;;;;;;4.50;4.07;;;;;;;17.32;100.00;64792.88;5071664;28;20279;-55
2023/06/27 03:03:05;;;;;;;5.85;4.50;;;;;;;17.33;100.00;64793.44;5071515;28;20226;-56
2023/06/27 03:05:31;;;;;;;6.43;4.10;;;;;;;17.45;100.00;64804.09;5053299;28;20212;-58
2023/06/27 03:07:58;;;;;;;7.88;4.43;;;;;;;17.43;100.00;64801.91;5071378;28;20596;-59
2023/06/27 03:10:23;;;;;;;7.63;4.55;;;;;;;17.49;100.00;64811.09;5053629;28;20208;-64
2023/06/27 03:12:49;;;;;;;11.23;4.55;;;;;;;17.53;100.00;64812.94;5071272;28;20197;-58
2023/06/27 03:15:14;;;;;;;5.95;4.40;;;;;;;17.63;100.00;64823.97;5071416;28;20201;-55
2023/06/27 03:17:40;;;;;;;5.15;4.40;;;;;;;17.59;100.00;64822.09;5071466;28;20211;-58
2023/06/27 03:20:06;;;;;;;8.18;5.13;;;;;;;17.57;100.00;64817.34;5071078;28;20212;-59
2023/06/27 03:22:32;;;;;;;6.13;4.00;;;;;;;17.49;100.00;64808.53;5071086;28;20224;-58
2023/06/27 03:24:57;;;;;;;9.05;4.65;;;;;;;17.42;100.00;64801.34;5053326;28;20678;-55
2023/06/27 03:27:24;;;;;;;8.90;4.70;;;;;;;17.47;100.00;64809.41;5071347;28;20326;-60
2023/06/27 03:29:50;;;;;;;8.13;5.15;;;;;;;17.56;100.00;64816.25;5070957;28;20646;-58
2023/06/27 03:32:15;;;;;;;7.13;4.55;;;;;;;17.48;100.00;64807.41;5070962;28;20201;-57
2023/06/27 03:34:41;;;;;;;5.60;4.10;;;;;;;17.37;100.00;64797.84;5071193;28;20731;-58
2023/06/27 03:37:07;;;;;;;6.88;4.97;;;;;;;17.74;100.00;64838.63;5070997;28;20208;-55
2023/06/27 03:39:32;;;;;;;5.78;4.00;;;;;;;19.13;100.00;64990.88;5071076;28;20235;-59
2023/06/27 03:41:58;;;;;;;6.93;4.90;;;;;;;18.62;100.00;64932.03;5070889;28;20493;-57
2023/06/27 03:44:23;;;;;;;8.55;5.03;;;;;;;18.25;100.00;64891.75;5071195;28;20291;-58
2023/06/27 03:46:49;;;;;;;6.72;4.00;;;;;;;18.03;100.00;64867.50;5071063;28;20634;-58
2023/06/27 03:49:14;;;;;;;6.15;4.50;;;;;;;17.81;100.00;64845.81;5070907;28;20209;-59
2023/06/27 03:51:40;;;;;;;8.05;4.75;;;;;;;17.64;100.00;64825.06;5070881;28;20254;-58
2023/06/27 03:54:06;;;;;;;5.90;4.53;;;;;;;17.50;100.00;64809.63;5070777;28;20208;-54
2023/06/27 03:56:32;;;;;;;6.53;4.78;;;;;;;17.42;100.00;64798.25;5070691;28;20539;-54
2023/06/27 03:58:58;;;;;;;6.60;4.18;;;;;;;17.20;100.00;64776.56;5069639;28;20212;-58
2023/06/27 04:01:23;;;;;;;5.43;4.00;;;;;;;17.02;100.00;64756.72;5069048;28;20211;-56
2023/06/27 04:03:48;;;;;;;8.25;4.35;;;;;;;16.77;100.00;64730.28;5070161;28;20701;-57
2023/06/27 04:06:14;;;;;;;7.22;4.43;;;;;;;16.85;100.00;64738.00;5069193;28;20288;-56
2023/06/27 04:08:39;;;;;;;6.18;4.28;;;;;;;16.78;100.00;64731.41;5070517;28;20216;-57
2023/06/27 04:11:05;;;;;;;10.57;4.57;;;;;;;16.97;100.00;64749.22;5069983;28;20283;-56
2023/06/27 04:13:30;;;;;;;10.20;5.30;;;;;;;17.12;100.00;64765.19;5070865;28;20572;-57
2023/06/27 04:15:56;;;;;;;5.93;4.85;;;;;;;17.27;100.00;64784.28;5070623;28;20209;-58
2023/06/27 04:18:21;;;;;;;9.35;4.78;;;;;;;17.34;100.00;64791.97;5070725;28;20567;-57
2023/06/27 04:20:46;;;;;;;7.22;5.25;;;;;;;17.53;100.00;64813.47;5071006;28;20258;-58
2023/06/27 04:23:12;;;;;;;7.07;5.38;;;;;;;17.56;100.00;64816.25;5070450;28;20570;-58
2023/06/27 04:25:37;;;;;;;7.05;5.40;;;;;;;17.47;100.00;64806.84;5070210;28;20211;-57
2023/06/27 04:28:04;;;;;;;8.50;5.35;;;;;;;17.75;100.00;64837.19;5070512;28;20203;-55
2023/06/27 04:30:29;;;;;;;7.15;5.28;;;;;;;17.73;100.00;64837.53;5070453;28;20201;-55
2023/06/27 04:32:55;;;;;;;7.38;4.95;;;;;;;17.61;100.00;64822.28;5069831;28;20208;-56
2023/06/27 04:35:20;;;;;;;8.85;5.40;;;;;;;17.74;100.00;64833.53;5070045;28;20566;-56
2023/06/27 04:37:46;;;;;;;5.70;4.65;;;;;;;17.74;100.00;64836.09;5070328;28;20215;-57
2023/06/27 04:40:12;;;;;;;6.13;4.78;;;;;;;17.63;100.00;64825.97;5070282;28;20216;-59
2023/06/27 04:42:38;;;;;;;8.70;4.30;;;;;;;17.88;100.00;64853.50;5070281;28;20686;-58
2023/06/27 04:45:05;;;;;;;5.32;4.15;;;;;;;17.92;100.00;64855.91;5070199;28;20616;-58
2023/06/27 04:47:32;;;;;;;6.20;4.40;;;;;;;18.14;100.00;64877.63;5070134;28;20647;-55
2023/06/27 04:49:58;;;;;;;7.20;4.40;;;;;;;18.32;100.00;64897.47;5070126;28;20283;-55
2023/06/27 04:52:23;;;;;;;6.68;3.95;;;;;;;18.23;100.00;64890.13;5070157;28;20242;-58
2023/06/27 04:54:50;;;;;;;5.57;4.45;;;;;;;18.19;100.00;64885.69;5070300;28;20216;-54
2023/06/27 04:57:17;;;;;;;9.68;4.10;;;;;;;18.49;100.00;64920.25;5069960;28;20162;-55
2023/06/27 04:59:43;;;;;;;4.30;3.90;;;;;;;18.46;100.00;64914.94;5070213;28;20271;-59
2023/06/27 05:02:08;;;;;;;6.10;3.80;;;;;;;18.56;100.00;64922.88;5070059;28;20197;-59
2023/06/27 05:04:34;;;;;;;7.15;4.68;;;;;;;18.57;100.00;64923.97;5069986;28;20213;-58
2023/06/27 05:07:00;;;;;;;7.65;5.25;;;;;;;19.35;100.00;65012.06;5069873;28;20207;-57
2023/06/27 05:09:25;;;;;;;8.50;4.80;;;;;;;19.80;100.00;65061.75;5069812;28;20617;-57
2023/06/27 05:11:51;;;;;;;7.68;5.15;;;;;;;19.60;100.00;65037.09;5069831;28;20315;-55
2023/06/27 05:14:16;;;;;;;7.75;5.00;;;;;;;19.51;100.00;65029.75;5073397;28;20558;-55
2023/06/27 05:16:42;;;;;;;16.80;8.25;;;;;;;19.83;100.00;65065.06;5073312;28;20211;-58
2023/06/27 05:19:07;;;;;;;8.77;5.63;;;;;;;20.17;100.00;65102.63;5055256;28;20213;-61
2023/06/27 05:21:32;;;;;;;12.27;6.55;;;;;;;20.17;100.00;65102.63;5073240;28;20207;-57
2023/06/27 05:23:58;;;;;;;11.30;6.80;;;;;;;19.98;100.00;65079.63;5073169;28;20555;-59
2023/06/27 05:26:24;;;;;;;11.02;7.07;;;;;;;19.48;100.00;65024.41;5072914;28;20201;-56
2023/06/27 05:28:50;;;;;;;12.77;7.20;;;;;;;19.77;100.00;65056.44;5072829;28;20270;-55
2023/06/27 05:31:15;;;;;;;17.27;8.13;;;;;;;19.83;100.00;65068.19;5073116;28;20192;-54
2023/06/27 05:33:40;;;;;;;10.27;7.28;;;;;;;19.52;100.00;65031.38;5072903;28;20597;-55
2023/06/27 05:36:06;;;;;;;13.07;7.55;;;;;;;19.37;100.00;65011.72;5072741;28;20207;-56
2023/06/27 05:38:31;;;;;;;11.45;8.18;;;;;;;19.43;100.00;65021.47;5072775;28;20242;-57
2023/06/27 05:40:57;;;;;;;12.70;8.52;;;;;;;19.30;100.00;65007.09;5071581;28;20216;-55
2023/06/27 05:43:22;;;;;;;12.50;8.05;;;;;;;19.26;100.00;65002.66;5071306;28;20243;-55
2023/06/27 05:45:48;;;;;;;10.57;6.50;;;;;;;19.35;100.00;65010.06;5072372;28;20674;-57
2023/06/27 05:48:13;;;;;;;11.35;7.40;;;;;;;19.33;100.00;65010.44;5072761;28;20216;-57
2023/06/27 05:50:39;;;;;;;15.55;8.38;;;;;;;19.39;100.00;65013.94;5072671;28;20261;-58
2023/06/27 05:53:04;;;;;;;14.73;7.15;;;;;;;19.83;100.00;65062.53;5072495;28;20269;-60
2023/06/27 05:55:30;;;;;;;12.90;7.07;;;;;;;20.08;100.00;65090.13;5072563;28;20693;-59
2023/06/27 05:57:56;;;;;;;11.75;8.10;;;;;;;20.34;100.00;65120.88;5072323;28;20208;-56
2023/06/27 06:00:21;;;;;;;9.75;6.35;;;;;;;20.31;100.00;65115.00;5072902;28;20201;-55
2023/06/27 06:02:47;;;;;;;13.95;6.70;;;;;;;20.54;100.00;65143.53;5054370;28;20747;-56
2023/06/27 06:05:14;;;;;;;12.93;6.75;;;;;;;20.71;100.00;65159.75;5072489;28;20714;-55
2023/06/27 06:07:42;;;;;;;11.55;6.53;;;;;;;20.85;100.00;65179.81;5072642;28;20205;-60
2023/06/27 06:10:09;;;;;;;9.43;6.78;;;;;;;20.39;100.00;65124.41;5054611;28;20595;-56
2023/06/27 06:12:35;;;;;;;10.02;6.85;;;;;;;20.50;100.00;65136.00;5072512;28;20287;-55
2023/06/27 06:15:01;;;;;;;9.07;6.43;;;;;;;21.70;100.00;65268.16;5072110;28;20212;-55
2023/06/27 06:17:26;;;;;;;8.18;6.38;;;;;;;21.90;100.00;65289.75;5072291;28;20205;-55
2023/06/27 06:19:53;;;;;;;12.32;6.68;;;;;;;22.16;98.50;65319.06;5072216;28;20216;-60
2023/06/27 06:22:18;;;;;;;10.05;6.32;;;;;;;22.47;95.27;65352.84;5072251;28;20202;-55
2023/06/27 06:24:44;;;;;;;9.77;6.57;;;;;;;21.74;93.34;65272.56;5071051;28;20338;-58
2023/06/27 06:27:09;;;;;;;9.02;6.72;;;;;;;21.33;94.58;65227.22;5072099;28;20213;-57
2023/06/27 06:29:35;;;;;;;8.85;5.80;;;;;;;21.71;100.00;65271.84;5072359;28;20216;-56
2023/06/27 06:32:00;;;;;;;10.10;6.82;;;;;;;21.41;93.26;65238.66;5072236;28;20201;-55
2023/06/27 06:34:26;;;;;;;8.50;6.15;;;;;;;21.33;95.51;65229.81;5072291;28;20223;-56
2023/06/27 06:36:51;;;;;;;9.32;6.60;;;;;;;21.56;94.83;65253.22;5071905;28;20236;-57
2023/06/27 06:39:17;;;;;;;10.13;7.07;;;;;;;21.70;94.62;65268.16;5053821;28;20248;-56
2023/06/27 06:41:42;;;;;;;9.38;6.55;;;;;;;22.01;96.04;65301.91;5072103;28;20650;-56
2023/06/27 06:44:07;;;;;;;11.05;7.60;;;;;;;22.05;92.54;65306.91;5071921;28;20213;-55
2023/06/27 06:46:34;;;;;;;12.77;7.00;;;;;;;22.07;88.90;65306.56;5071783;28;20207;-56
2023/06/27 06:48:59;;;;;;;9.50;6.50;;;;;;;22.16;88.39;65319.06;5053523;28;20217;-57
2023/06/27 06:51:25;;;;;;;15.57;9.70;;;;;;;22.52;92.14;65358.38;5071882;28;20204;-55
2023/06/27 06:53:50;;;;;;;6.80;5.82;;;;;;;22.62;88.52;65371.47;5072092;28;20205;-56
2023/06/27 06:56:15;;;;;;;9.20;6.30;;;;;;;22.80;89.08;65386.28;5071784;28;20624;-57
2023/06/27 06:58:41;;;;;;;8.25;5.47;;;;;;;22.88;85.57;65397.69;5071734;28;20208;-57
2023/06/27 07:01:06;;;;;;;6.75;5.63;;;;;;;22.86;83.70;65393.47;5071630;28;20559;-55
2023/06/27 07:03:33;;;;;;;7.68;6.35;;;;;;;22.92;84.74;65402.69;5071723;28;20266;-56
2023/06/27 07:05:59;;;;;;;8.55;5.55;;;;;;;22.92;83.39;65399.56;5071539;28;20690;-56
2023/06/27 07:08:24;;;;;;;7.50;6.18;;;;;;;22.91;83.32;65401.56;5071649;28;20243;-60
2023/06/27 07:10:50;;;;;;;7.35;6.10;;;;;;;22.97;84.59;65407.66;5071608;28;20208;-56
2023/06/27 07:13:15;;;;;;;10.90;6.88;;;;;;;23.07;85.96;65419.28;5053516;28;20208;-57
2023/06/27 07:15:41;;;;;;;8.55;6.40;;;;;;;23.06;82.75;65417.63;5071651;28;20717;-57
2023/06/27 07:18:06;;;;;;;10.63;7.45;;;;;;;23.11;83.32;65423.72;5053430;28;20562;-58
2023/06/27 07:20:32;;;;;;;11.77;7.30;;;;;;;23.36;83.20;65453.47;5071228;28;20202;-58
2023/06/27 07:22:57;;;;;;;7.72;6.30;;;;;;;23.39;81.86;65453.66;5071266;28;20189;-57
2023/06/27 07:25:23;;;;;;;7.80;6.40;;;;;;;23.43;82.71;65458.66;5071410;28;20201;-59
2023/06/27 07:27:50;;;;;;;8.95;6.50;;;;;;;23.40;81.44;65454.78;5070966;28;20248;-57
2023/06/27 07:30:16;;;;;;;8.30;7.05;;;;;;;23.39;79.81;65456.81;5053099;28;20257;-55
2023/06/27 07:32:41;;;;;;;11.55;7.07;;;;;;;23.41;81.27;65453.31;5053190;28;20291;-57
2023/06/27 07:35:07;;;;;;;8.65;6.35;;;;;;;23.46;82.22;65464.00;5071333;28;20303;-60
2023/06/27 07:37:33;;;;;;;7.32;6.25;;;;;;;23.64;81.92;65481.34;5071459;28;20291;-57
2023/06/27 07:39:58;;;;;;;7.95;6.55;;;;;;;23.73;78.54;65491.34;5071302;28;20212;-58
2023/06/27 07:42:25;;;;;;;10.88;6.95;;;;;;;23.94;80.70;65514.59;5071234;28;20287;-57
2023/06/27 07:44:51;;;;;;;10.27;7.22;;;;;;;24.00;77.39;65521.25;5071162;28;20217;-60
2023/06/27 07:47:16;;;;;;;14.95;6.75;;;;;;;23.76;77.23;65492.09;5071042;28;20617;-57
2023/06/27 07:49:41;;;;;;;13.90;6.40;;;;;;;23.91;78.77;65511.28;5070949;28;20728;-59
2023/06/27 07:52:08;;;;;;;9.30;5.43;;;;;;;24.17;79.36;65538.13;5070907;28;20650;-58
2023/06/27 07:54:34;;;;;;;8.95;5.97;;;;;;;24.28;78.26;65552.31;5070780;28;20223;-56
2023/06/27 07:57:00;;;;;;;10.95;7.03;;;;;;;24.30;76.19;65554.53;5052863;28;20197;-56
2023/06/27 07:59:25;;;;;;;6.65;6.05;;;;;;;24.34;77.10;65558.44;5070962;28;20223;-55
2023/06/27 08:01:51;;;;;;;9.20;5.30;;;;;;;24.51;74.00;65574.72;5070991;28;20180;-56
2023/06/27 08:04:16;;;;;;;7.15;5.82;;;;;;;24.57;73.03;65584.50;5071027;28;20217;-59
2023/06/27 08:06:42;;;;;;;6.95;5.28;;;;;;;24.61;75.42;65591.50;5070847;28;20193;-61
2023/06/27 08:09:08;;;;;;;8.02;5.65;;;;;;;24.78;72.69;65604.69;5070834;28;20721;-60
2023/06/27 08:11:34;;;;;;;5.53;4.95;;;;;;;24.89;71.83;65620.00;5070722;28;20201;-56
2023/06/27 08:14:00;;;;;;;8.40;5.25;;;;;;;25.09;73.34;65638.53;5052423;28;20220;-59
2023/06/27 08:16:25;;;;;;;7.20;5.53;;;;;;;24.90;68.96;65621.13;5070843;28;20224;-58
2023/06/27 08:18:51;;;;;;;8.90;5.53;;;;;;;24.59;65.92;65586.16;5052811;28;20216;-56
2023/06/27 08:21:16;;;;;;;8.57;5.55;;;;;;;24.78;67.65;65605.25;5070547;28;20207;-56
2023/06/27 08:23:42;;;;;;;6.85;6.15;;;;;;;24.99;71.70;65630.56;5070018;22;20227;-56
2023/06/27 08:26:12;;;;;;;7.78;5.85;;;;;;;25.21;70.94;65651.84;5050494;28;20200;-56
2023/06/27 08:28:37;;;;;;;11.45;5.82;;;;;;;25.49;71.42;65688.66;5050621;28;20691;-56
2023/06/27 08:31:03;;;;;;;7.43;5.22;;;;;;;25.42;67.63;65675.16;5050413;28;20205;-57
2023/06/27 08:33:28;;;;;;;7.68;5.15;;;;;;;25.43;67.98;65676.28;5050427;28;20228;-58
2023/06/27 08:35:54;;;;;;;5.47;4.97;;;;;;;25.67;71.70;65706.03;5050294;28;20597;-59
2023/06/27 08:38:20;;;;;;;7.53;4.85;;;;;;;25.74;71.20;65710.69;5050916;28;20245;-60
2023/06/27 08:40:46;;;;;;;9.15;5.22;;;;;;;25.78;67.05;65715.69;5050376;28;20694;-58
2023/06/27 08:43:12;;;;;;;6.65;5.07;;;;;;;25.87;69.43;65727.72;5050596;28;20288;-56
2023/06/27 08:45:38;;;;;;;6.20;5.07;;;;;;;26.06;66.91;65746.22;5050000;28;20299;-56
2023/06/27 08:48:06;;;;;;;9.32;4.95;;;;;;;25.97;68.59;65733.09;5052321;28;20206;-56
2023/06/27 08:50:34;;;;;;;5.35;4.78;;;;;;;26.10;66.31;65750.13;5053855;28;20208;-57
2023/06/27 08:53:04;;;;;;;8.02;5.47;;;;;;;26.08;64.65;65748.44;5035672;28;20214;-59
2023/06/27 08:55:39;;;;;;;6.97;5.00;;;;;;;25.65;66.01;65701.25;5053941;28;20193;-56
2023/06/27 08:58:08;;;;;;;6.13;5.10;;;;;;;25.93;64.96;65731.78;5053770;28;20212;-60
2023/06/27 09:00:35;;;;;;;4.72;4.22;;;;;;;26.12;68.89;65755.47;5053612;28;20594;-61
2023/06/27 09:03:01;;;;;;;9.38;5.72;;;;;;;25.73;62.87;65710.13;5053920;28;20634;-55
2023/06/27 09:05:28;;;;;;;7.75;5.43;;;;;;;25.90;63.79;65731.03;5053631;28;20201;-57
2023/06/27 09:07:54;;;;;;;6.90;4.50;;;;;;;26.31;64.00;65776.59;5053920;28;20224;-59
2023/06/27 09:10:20;;;;;;;6.93;4.80;;;;;;;26.11;63.23;65751.78;5053296;28;20225;-60
2023/06/27 09:12:49;;;;;;;6.95;4.88;;;;;;;26.19;61.32;65760.13;5051847;28;20189;-56
2023/06/27 09:15:15;;;;;;;7.22;5.00;;;;;;;26.21;60.00;65765.50;5053267;28;20601;-56
2023/06/27 09:17:40;;;;;;;7.53;4.40;;;;;;;26.14;61.35;65757.16;5053453;28;20628;-58
2023/06/27 09:20:07;;;;;;;5.57;4.80;;;;;;;26.49;62.72;65796.59;5053119;28;20224;-59
2023/06/27 09:22:34;;;;;;;6.65;4.45;;;;;;;26.40;60.57;65784.00;5053366;28;20193;-55
2023/06/27 09:25:16;;;;;;;7.47;4.20;;;;;;;26.76;59.71;65822.91;5051588;28;20283;-57
2023/06/27 09:27:42;;;;;;;6.28;4.22;;;;;;;26.51;53.87;65796.22;5053262;28;20646;-55
2023/06/27 09:30:10;;;;;;;6.30;4.75;;;;;;;26.86;56.44;65834.03;5052943;28;20228;-56
2023/06/27 09:33:11;;;;;;;5.78;4.82;;;;;;;26.92;54.21;65841.25;5053205;28;20250;-55
2023/06/27 09:35:50;;;;;;;7.78;5.45;;;;;;;27.04;56.71;65856.63;4972291;28;20203;-56
2023/06/27 09:38:18;;;;;;;8.38;4.88;;;;;;;27.53;57.95;65908.53;5043385;28;20225;-56
2023/06/27 09:40:44;;;;;;;5.05;4.40;;;;;;;27.84;57.94;65942.44;5035218;28;20200;-60
2023/06/27 09:43:11;;;;;;;5.88;4.50;;;;;;;27.60;55.22;65913.16;5052661;28;20213;-59
2023/06/27 09:45:37;;;;;;;8.15;4.60;;;;;;;27.96;56.17;65958.41;5052837;28;20705;-57
2023/06/27 09:48:02;;;;;;;4.80;4.18;;;;;;;27.91;55.28;65952.81;5052955;28;20221;-56
2023/06/27 09:50:29;;;;;;;5.07;4.63;;;;;;;27.78;55.79;65938.91;5052835;28;20197;-56
2023/06/27 09:53:05;;;;;;;8.95;4.75;;;;;;;27.24;52.68;65876.81;5053005;28;20241;-56
2023/06/27 09:55:31;;;;;;;5.80;4.88;;;;;;;27.50;54.07;65904.63;5052757;28;20201;-60
2023/06/27 09:57:57;;;;;;;6.82;4.53;;;;;;;28.04;52.25;65967.28;5052423;28;20319;-56
2023/06/27 10:00:26;;;;;;;6.28;4.95;;;;;;;28.51;51.79;66017.00;5091170;22;20311;-56
2023/06/27 10:02:52;;;;;;;6.20;4.35;;;;;;;28.81;51.23;66050.41;5092686;28;20561;-59
2023/06/27 10:05:22;;;;;;;4.93;4.43;;;;;;;28.83;48.71;66052.66;5092527;28;20680;-55
2023/06/27 10:07:49;;;;;;;4.35;3.80;;;;;;;28.79;49.76;66048.19;5092637;28;20287;-55
2023/06/27 10:10:15;;;;;;;6.88;4.50;;;;;;;28.31;53.11;65994.19;5092763;28;20203;-56
2023/06/27 10:12:43;;;;;;;5.43;4.53;;;;;;;28.02;50.78;65962.47;5092815;28;20204;-56
2023/06/27 10:15:10;;;;;;;6.25;4.45;;;;;;;28.30;51.54;65993.63;5092907;28;20208;-59
2023/06/27 10:17:36;;;;;;;4.90;4.03;;;;;;;28.03;51.70;65964.16;5092539;28;20257;-55
2023/06/27 10:20:04;;;;;;;5.93;4.35;;;;;;;28.45;50.67;66012.38;5092377;28;20644;-56
2023/06/27 10:22:32;;;;;;;6.10;4.82;;;;;;;28.51;55.54;66016.44;5092502;28;20204;-57
2023/06/27 10:25:04;;;;;;;6.43;3.80;;;;;;;28.76;50.23;66044.31;5092584;28;20712;-58
2023/06/27 10:27:33;;;;;;;4.80;3.80;;;;;;;28.49;45.28;66017.38;5092382;28;20200;-56
2023/06/27 10:30:04;;;;;;;4.35;3.47;;;;;;;29.14;43.41;66083.44;5092273;28;20247;-55
2023/06/27 10:32:46;;;;;;;6.88;3.55;;;;;;;29.39;45.69;66111.84;5092494;28;20282;-59
2023/06/27 10:35:24;;;;;;;4.18;3.75;;;;;;;29.18;45.67;66093.13;5092220;28;20212;-56
2023/06/27 10:38:20;;;;;;;4.75;4.35;;;;;;;28.94;44.95;66064.34;5074106;28;20207;-56
2023/06/27 10:41:05;;;;;;;4.70;4.22;;;;;;;29.30;46.01;66101.84;5083403;28;20212;-59
2023/06/27 10:43:37;;;;;;;5.90;4.38;;;;;;;29.93;46.49;66173.53;5092438;28;20210;-58
2023/06/27 10:46:22;;;;;;;5.70;4.60;;;;;;;28.57;43.61;66023.16;5092081;28;20196;-61
2023/06/27 10:48:54;;;;;;;6.32;4.18;;;;;;;28.81;44.04;66049.84;5091988;28;20705;-60
2023/06/27 10:51:22;;;;;;;4.53;3.90;;;;;;;28.67;43.86;66034.28;5092199;28;20195;-58
2023/06/27 10:54:09;;;;;;;5.60;4.15;;;;;;;27.89;46.15;65948.00;5091957;28;20223;-58
2023/06/27 10:56:50;;;;;;;6.75;3.90;;;;;;;28.15;43.27;65980.09;5092187;28;20321;-56
2023/06/27 10:59:18;;;;;;;4.50;3.85;;;;;;;28.42;42.82;66006.44;5092324;28;20223;-57
2023/06/27 11:01:58;;;;;;;5.93;4.15;;;;;;;28.07;43.20;65968.06;5092011;28;20214;-55
2023/06/27 11:04:39;;;;;;;4.85;4.13;;;;;;;28.84;42.82;66051.19;5091906;28;20280;-56
2023/06/27 11:07:07;;;;;;;3.85;3.53;;;;;;;28.28;45.27;65990.88;5091990;28;20203;-57
2023/06/27 11:09:35;;;;;;;4.13;3.72;;;;;;;27.62;46.13;65915.94;5091838;28;20693;-60
2023/06/27 11:12:15;;;;;;;4.72;4.05;;;;;;;27.60;48.26;65915.75;5091518;28;20577;-58
2023/06/27 11:14:43;;;;;;;4.55;3.70;;;;;;;27.10;52.88;65858.66;5091845;28;20211;-56
2023/06/27 11:17:09;;;;;;;7.03;4.10;;;;;;;27.37;44.89;65890.75;5091843;28;20203;-58
2023/06/27 11:19:38;;;;;;;4.43;4.03;;;;;;;28.03;43.16;65966.19;5092141;28;20208;-57
2023/06/27 11:22:04;;;;;;;4.50;4.10;;;;;;;28.32;43.07;65998.44;5091699;28;20192;-58
2023/06/27 11:24:30;;;;;;;4.35;3.92;;;;;;;28.28;42.20;65990.88;5091408;28;20228;-57
2023/06/27 11:26:56;;;;;;;4.95;4.22;;;;;;;29.34;41.19;66108.91;5091699;28;20693;-60